Time;durP1;ratioP1;P1;durP2;ratioP2;P2;SDS_P1;SDS_P2;PMS_P1;PMS_P2;Temp;Humidity;BMP_temperature;BMP_pressure;BME280_temperature;BME280_humidity;BME280_pressure;Samples;Min_cycle;Max_cycle;Signal;HPM_P1;HPM_P2
2022/03/19 00:02:02;;;;;;;48.75;27.85;;;;;;;;;;4965324;29;20432;-78
2022/03/19 00:04:30;;;;;;;51.00;27.77;;;;;;;;;;4972118;29;20055;-79
2022/03/19 00:06:57;;;;;;;48.47;27.75;;;;;;;;;;4960973;28;20043;-79
2022/03/19 00:09:25;;;;;;;51.28;27.67;;;;;;;;;;4963158;29;20047;-78
2022/03/19 00:11:54;;;;;;;48.33;27.30;;;;;;;;;;4960286;29;20047;-78
2022/03/19 00:14:21;;;;;;;55.17;29.90;;;;;;;;;;4957428;29;20047;-78
2022/03/19 00:16:48;;;;;;;49.33;27.90;;;;;;;;;;4958473;29;20479;-79
2022/03/19 00:19:14;;;;;;;56.92;29.95;;;;;;;;;;4960207;29;20051;-79
2022/03/19 00:21:43;;;;;;;55.30;29.70;;;;;;;;;;4961746;29;20055;-79
2022/03/19 00:24:10;;;;;;;59.58;31.40;;;;;;;;;;4960967;29;20047;-78
2022/03/19 00:26:37;;;;;;;54.80;30.00;;;;;;;;;;4959952;29;20468;-79
2022/03/19 00:29:04;;;;;;;57.40;30.75;;;;;;;;;;4961068;29;20059;-79
2022/03/19 00:31:30;;;;;;;56.25;30.63;;;;;;;;;;4959894;29;20043;-79
2022/03/19 00:33:57;;;;;;;59.20;32.53;;;;;;;;;;4960441;29;20482;-78
2022/03/19 00:36:24;;;;;;;59.50;31.40;;;;;;;;;;4959966;29;20055;-78
2022/03/19 00:38:53;;;;;;;59.97;33.08;;;;;;;;;;4959835;29;20102;-79
2022/03/19 00:41:20;;;;;;;63.50;32.88;;;;;;;;;;4959827;29;20110;-79
2022/03/19 00:43:47;;;;;;;62.88;34.20;;;;;;;;;;4960798;28;20054;-78
2022/03/19 00:46:15;;;;;;;64.68;33.45;;;;;;;;;;4979485;28;20662;-78
2022/03/19 00:48:42;;;;;;;75.45;35.80;;;;;;;;;;4979838;28;20074;-79
2022/03/19 00:51:09;;;;;;;65.93;32.70;;;;;;;;;;4981759;28;20486;-78
2022/03/19 00:53:36;;;;;;;69.07;35.72;;;;;;;;;;4983429;28;20407;-78
2022/03/19 00:56:04;;;;;;;68.78;34.78;;;;;;;;;;4983934;28;20059;-77
2022/03/19 00:58:31;;;;;;;68.88;35.33;;;;;;;;;;4983702;28;20051;-79
2022/03/19 01:00:58;;;;;;;66.97;33.33;;;;;;;;;;4979542;28;20051;-79
2022/03/19 01:03:25;;;;;;;67.13;35.55;;;;;;;;;;4978955;28;20054;-78
2022/03/19 01:05:52;;;;;;;76.60;38.42;;;;;;;;;;4978796;28;20150;-79
2022/03/19 01:08:19;;;;;;;67.40;35.15;;;;;;;;;;4979454;28;20058;-79
2022/03/19 01:10:46;;;;;;;74.55;37.72;;;;;;;;;;4979127;28;20047;-78
2022/03/19 01:13:14;;;;;;;73.47;38.88;;;;;;;;;;4978797;28;20055;-79
2022/03/19 01:15:41;;;;;;;77.32;39.17;;;;;;;;;;4977574;28;20572;-79
2022/03/19 01:18:08;;;;;;;87.22;43.30;;;;;;;;;;4977585;28;20051;-78
2022/03/19 01:20:35;;;;;;;78.47;38.58;;;;;;;;;;4978559;28;20047;-78
2022/03/19 01:23:02;;;;;;;85.05;40.72;;;;;;;;;;4978359;28;20113;-77
2022/03/19 01:25:29;;;;;;;79.85;38.72;;;;;;;;;;4977808;28;20051;-79
2022/03/19 01:27:56;;;;;;;82.82;40.13;;;;;;;;;;4978999;28;20055;-79
2022/03/19 01:30:24;;;;;;;89.85;42.50;;;;;;;;;;4978511;28;20046;-79
2022/03/19 01:32:51;;;;;;;82.95;39.97;;;;;;;;;;4978950;28;20053;-79
2022/03/19 01:35:20;;;;;;;85.95;42.20;;;;;;;;;;4977347;28;20057;-79
2022/03/19 01:37:47;;;;;;;86.28;40.88;;;;;;;;;;4977594;28;20106;-79
2022/03/19 01:40:15;;;;;;;85.97;40.45;;;;;;;;;;4978554;28;20047;-79
2022/03/19 01:42:44;;;;;;;88.57;42.00;;;;;;;;;;4978055;28;20051;-79
2022/03/19 01:45:12;;;;;;;85.95;41.97;;;;;;;;;;4966127;28;20058;-78
2022/03/19 01:47:41;;;;;;;83.93;39.85;;;;;;;;;;4958225;29;20047;-78
2022/03/19 01:50:10;;;;;;;82.28;40.03;;;;;;;;;;4958360;29;20491;-78
2022/03/19 01:52:37;;;;;;;89.70;42.65;;;;;;;;;;4958337;29;20470;-77
2022/03/19 01:55:06;;;;;;;83.88;41.28;;;;;;;;;;4959176;29;20058;-79
2022/03/19 01:57:38;;;;;;;87.65;40.67;;;;;;;;;;4959490;29;20115;-78
2022/03/19 02:00:06;;;;;;;87.05;42.35;;;;;;;;;;4959791;29;20078;-79
2022/03/19 02:02:33;;;;;;;85.53;39.88;;;;;;;;;;4960492;29;20047;-78
2022/03/19 02:05:04;;;;;;;89.75;43.83;;;;;;;;;;4959364;29;20055;-78
2022/03/19 02:07:31;;;;;;;88.45;40.72;;;;;;;;;;4958552;29;20051;-79
2022/03/19 02:09:59;;;;;;;84.40;42.88;;;;;;;;;;4958525;29;20055;-78
2022/03/19 02:12:26;;;;;;;89.13;43.55;;;;;;;;;;4958259;29;20054;-79
2022/03/19 02:14:54;;;;;;;91.78;43.03;;;;;;;;;;4957407;29;20339;-79
2022/03/19 02:17:23;;;;;;;91.45;42.33;;;;;;;;;;4958593;29;20053;-79
2022/03/19 02:19:52;;;;;;;90.78;42.10;;;;;;;;;;4960218;29;20499;-78
2022/03/19 02:22:21;;;;;;;86.25;41.15;;;;;;;;;;4959468;29;20051;-78
2022/03/19 02:27:34;;;;;;;90.50;42.30;;;;;;;;;;4958596;29;20062;-78
2022/03/19 02:30:01;;;;;;;88.38;43.08;;;;;;;;;;4958834;29;20058;-79
2022/03/19 02:32:28;;;;;;;90.50;42.80;;;;;;;;;;4959350;29;20043;-78
2022/03/19 02:34:55;;;;;;;91.72;43.38;;;;;;;;;;4958862;29;20102;-79
2022/03/19 02:37:22;;;;;;;85.05;40.53;;;;;;;;;;4959129;29;20059;-79
2022/03/19 02:39:51;;;;;;;85.82;42.03;;;;;;;;;;4958786;29;20094;-79
2022/03/19 02:42:19;;;;;;;90.05;40.65;;;;;;;;;;4958703;29;20491;-80
2022/03/19 02:44:49;;;;;;;91.03;42.40;;;;;;;;;;4965769;28;20051;-79
2022/03/19 02:47:15;;;;;;;86.90;42.53;;;;;;;;;;4977063;28;20114;-79
2022/03/19 02:49:42;;;;;;;90.90;40.97;;;;;;;;;;4977573;28;20062;-78
2022/03/19 02:52:09;;;;;;;89.75;40.50;;;;;;;;;;4977805;28;20050;-77
2022/03/19 02:54:36;;;;;;;86.13;40.30;;;;;;;;;;4977149;28;20051;-78
2022/03/19 02:57:04;;;;;;;83.88;41.67;;;;;;;;;;4977293;28;20047;-79
2022/03/19 02:59:34;;;;;;;84.78;40.55;;;;;;;;;;4976363;28;20051;-78
2022/03/19 03:02:03;;;;;;;83.03;40.35;;;;;;;;;;4977263;28;20051;-78
2022/03/19 03:04:30;;;;;;;83.90;41.28;;;;;;;;;;4976329;28;20062;-78
2022/03/19 03:06:58;;;;;;;84.35;39.97;;;;;;;;;;4973495;28;20047;-77
2022/03/19 03:09:27;;;;;;;84.80;39.28;;;;;;;;;;4973770;28;20055;-78
2022/03/19 03:11:54;;;;;;;78.75;38.40;;;;;;;;;;4974097;28;20051;-78
2022/03/19 03:14:22;;;;;;;78.07;39.78;;;;;;;;;;4973551;28;20050;-78
2022/03/19 03:16:50;;;;;;;78.30;37.47;;;;;;;;;;4973559;28;20050;-78
2022/03/19 03:19:17;;;;;;;74.15;37.80;;;;;;;;;;4978511;28;20057;-77
2022/03/19 03:21:45;;;;;;;79.07;38.17;;;;;;;;;;4982506;28;20519;-77
2022/03/19 03:24:12;;;;;;;83.75;38.55;;;;;;;;;;4982430;28;20097;-77
2022/03/19 03:26:40;;;;;;;80.15;37.95;;;;;;;;;;4981654;28;20062;-78
2022/03/19 03:29:07;;;;;;;86.35;39.58;;;;;;;;;;4988130;28;20062;-78
2022/03/19 03:31:36;;;;;;;76.72;36.95;;;;;;;;;;4985888;28;20051;-79
2022/03/19 03:34:04;;;;;;;77.07;39.30;;;;;;;;;;4982550;28;20095;-77
2022/03/19 03:36:31;;;;;;;80.95;37.50;;;;;;;;;;4979813;28;20047;-78
2022/03/19 03:38:58;;;;;;;78.00;37.22;;;;;;;;;;4976748;28;20399;-78
2022/03/19 03:41:24;;;;;;;84.45;37.35;;;;;;;;;;4975560;28;20043;-77
2022/03/19 03:43:51;;;;;;;74.70;35.75;;;;;;;;;;4979942;28;20051;-79
2022/03/19 03:46:18;;;;;;;77.28;38.75;;;;;;;;;;4961490;29;20055;-79
2022/03/19 03:48:46;;;;;;;76.90;35.83;;;;;;;;;;4961315;29;20051;-79
2022/03/19 03:51:14;;;;;;;73.13;36.28;;;;;;;;;;4960472;29;20051;-78
2022/03/19 03:53:44;;;;;;;75.35;36.58;;;;;;;;;;4960781;29;20043;-79
2022/03/19 03:56:11;;;;;;;70.30;35.75;;;;;;;;;;4961016;29;20051;-79
2022/03/19 03:58:39;;;;;;;81.65;37.22;;;;;;;;;;4960335;29;20058;-78
2022/03/19 04:01:06;;;;;;;73.72;35.40;;;;;;;;;;4960137;29;20051;-78
2022/03/19 04:03:33;;;;;;;68.05;34.10;;;;;;;;;;4961115;29;20055;-78
2022/03/19 04:06:01;;;;;;;67.13;33.78;;;;;;;;;;4961124;29;20043;-79
2022/03/19 04:08:28;;;;;;;78.03;35.70;;;;;;;;;;4961095;29;20396;-78
2022/03/19 04:10:55;;;;;;;71.53;34.33;;;;;;;;;;4960372;29;20075;-78
2022/03/19 04:13:22;;;;;;;72.35;33.95;;;;;;;;;;4960080;29;20055;-78
2022/03/19 04:15:50;;;;;;;65.03;33.47;;;;;;;;;;4958007;29;20051;-78
2022/03/19 04:18:16;;;;;;;65.57;33.20;;;;;;;;;;4956934;29;20419;-77
2022/03/19 04:20:43;;;;;;;65.57;33.53;;;;;;;;;;4957445;29;20062;-77
2022/03/19 04:23:11;;;;;;;69.22;32.53;;;;;;;;;;4957030;29;20054;-78
2022/03/19 04:25:40;;;;;;;65.53;32.25;;;;;;;;;;4956691;29;20059;-79
2022/03/19 04:28:07;;;;;;;60.00;32.30;;;;;;;;;;4957083;29;20414;-78
2022/03/19 04:30:33;;;;;;;62.05;31.45;;;;;;;;;;4957071;29;20051;-79
2022/03/19 04:33:02;;;;;;;71.13;33.20;;;;;;;;;;4957024;29;20057;-78
2022/03/19 04:38:17;;;;;;;66.93;33.75;;;;;;;;;;4975450;29;20137;-78
2022/03/19 04:40:46;;;;;;;68.87;32.63;;;;;;;;;;4957657;28;20047;-78
2022/03/19 04:43:14;;;;;;;67.47;31.27;;;;;;;;;;4957091;29;20055;-78
2022/03/19 04:45:42;;;;;;;64.05;32.03;;;;;;;;;;4973780;28;20051;-79
2022/03/19 04:48:10;;;;;;;63.45;33.13;;;;;;;;;;4979058;28;20050;-79
2022/03/19 04:50:38;;;;;;;64.95;32.13;;;;;;;;;;4978840;28;20051;-79
2022/03/19 04:53:06;;;;;;;64.90;34.03;;;;;;;;;;4978441;28;20572;-79
2022/03/19 04:55:35;;;;;;;65.15;31.60;;;;;;;;;;4978507;28;20042;-79
2022/03/19 04:58:03;;;;;;;66.63;34.03;;;;;;;;;;4979287;28;20047;-79
2022/03/19 05:00:30;;;;;;;63.30;32.03;;;;;;;;;;4979704;28;20047;-79
2022/03/19 05:02:58;;;;;;;69.07;33.03;;;;;;;;;;4977587;28;20053;-79
2022/03/19 05:05:25;;;;;;;66.10;32.90;;;;;;;;;;4977268;28;20047;-78
2022/03/19 05:07:53;;;;;;;61.42;30.85;;;;;;;;;;4976961;28;20043;-79
2022/03/19 05:13:05;;;;;;;63.88;31.20;;;;;;;;;;4977247;28;20057;-80
2022/03/19 05:15:33;;;;;;;59.20;30.13;;;;;;;;;;4978684;28;20105;-80
2022/03/19 05:18:00;;;;;;;61.38;30.85;;;;;;;;;;4978872;28;20486;-80
2022/03/19 05:20:27;;;;;;;57.92;30.55;;;;;;;;;;4978969;28;20043;-79
2022/03/19 05:22:54;;;;;;;64.75;31.52;;;;;;;;;;4979305;28;20387;-80
2022/03/19 05:25:20;;;;;;;60.53;32.13;;;;;;;;;;4979734;28;20403;-80
2022/03/19 05:27:47;;;;;;;58.08;30.30;;;;;;;;;;4979529;28;20101;-79
2022/03/19 05:30:16;;;;;;;60.60;30.40;;;;;;;;;;4980409;28;20062;-79
2022/03/19 05:32:43;;;;;;;63.72;31.42;;;;;;;;;;4979698;28;20053;-79
2022/03/19 05:35:10;;;;;;;61.92;31.70;;;;;;;;;;4978726;28;20102;-79
2022/03/19 05:37:37;;;;;;;61.65;30.38;;;;;;;;;;4978364;28;20047;-79
2022/03/19 05:40:06;;;;;;;57.85;31.15;;;;;;;;;;4978949;28;20050;-80
2022/03/19 05:42:33;;;;;;;60.28;29.27;;;;;;;;;;4978777;28;20434;-78
2022/03/19 05:45:00;;;;;;;56.97;28.52;;;;;;;;;;4968578;28;20478;-79
2022/03/19 05:47:28;;;;;;;60.35;31.00;;;;;;;;;;4958804;29;20047;-79
2022/03/19 05:49:55;;;;;;;58.10;31.70;;;;;;;;;;4959027;29;20051;-79
2022/03/19 05:52:22;;;;;;;58.55;29.67;;;;;;;;;;4959506;29;20054;-79
2022/03/19 05:54:48;;;;;;;53.25;29.48;;;;;;;;;;4959548;29;20078;-79
2022/03/19 05:57:15;;;;;;;56.95;28.92;;;;;;;;;;4959687;29;20058;-79
2022/03/19 05:59:42;;;;;;;62.47;30.85;;;;;;;;;;4959052;29;20059;-79
2022/03/19 06:02:09;;;;;;;59.42;29.60;;;;;;;;;;4959167;29;20058;-80
2022/03/19 06:04:38;;;;;;;60.45;30.00;;;;;;;;;;4958901;28;20050;-79
2022/03/19 06:07:05;;;;;;;55.65;28.85;;;;;;;;;;4957738;29;20044;-78
2022/03/19 06:09:32;;;;;;;57.22;30.33;;;;;;;;;;4962123;29;20061;-79
2022/03/19 06:11:59;;;;;;;59.90;30.38;;;;;;;;;;4960600;29;20447;-80
2022/03/19 06:14:26;;;;;;;51.85;28.02;;;;;;;;;;4960104;29;20055;-79
2022/03/19 06:16:52;;;;;;;53.05;27.63;;;;;;;;;;4963385;29;20055;-78
2022/03/19 06:19:20;;;;;;;52.53;27.95;;;;;;;;;;4965085;29;20083;-78
2022/03/19 06:21:48;;;;;;;54.90;29.00;;;;;;;;;;4970152;29;20055;-78
2022/03/19 06:24:15;;;;;;;52.70;28.30;;;;;;;;;;4977975;28;20043;-78
2022/03/19 06:26:42;;;;;;;53.33;28.38;;;;;;;;;;4978717;28;20102;-78
2022/03/19 06:29:09;;;;;;;55.58;28.65;;;;;;;;;;4977019;28;20066;-79
2022/03/19 06:31:35;;;;;;;52.20;28.77;;;;;;;;;;4968223;29;20059;-78
2022/03/19 06:34:03;;;;;;;57.95;26.73;;;;;;;;;;4971204;29;20074;-78
2022/03/19 06:39:15;;;;;;;51.17;27.27;;;;;;;;;;4968442;29;20062;-80
2022/03/19 06:41:42;;;;;;;53.63;28.67;;;;;;;;;;4962028;29;20351;-80
2022/03/19 06:44:09;;;;;;;51.65;26.00;;;;;;;;;;4967363;28;20054;-80
2022/03/19 06:46:36;;;;;;;46.83;25.98;;;;;;;;;;4984508;28;20054;-80
2022/03/19 06:49:03;;;;;;;50.30;26.10;;;;;;;;;;4983425;28;20078;-79
2022/03/19 06:51:30;;;;;;;48.47;25.92;;;;;;;;;;4979906;28;20059;-80
2022/03/19 06:53:57;;;;;;;45.42;25.02;;;;;;;;;;4979694;28;20058;-79
2022/03/19 06:56:26;;;;;;;45.78;25.38;;;;;;;;;;4979008;28;20055;-80
2022/03/19 06:58:53;;;;;;;43.53;23.58;;;;;;;;;;4977120;28;20139;-77
2022/03/19 07:01:20;;;;;;;47.72;25.02;;;;;;;;;;4979420;28;20391;-78
2022/03/19 07:03:48;;;;;;;45.58;25.20;;;;;;;;;;4977914;28;20051;-79
2022/03/19 07:06:16;;;;;;;44.13;24.63;;;;;;;;;;4978175;28;20061;-78
2022/03/19 07:08:43;;;;;;;40.28;24.10;;;;;;;;;;4977881;28;20085;-79
2022/03/19 07:11:10;;;;;;;42.30;24.45;;;;;;;;;;4976884;28;20421;-78
2022/03/19 07:13:39;;;;;;;41.75;23.52;;;;;;;;;;4979085;28;20050;-79
2022/03/19 07:16:07;;;;;;;47.58;25.13;;;;;;;;;;4977402;28;20354;-80
2022/03/19 07:18:34;;;;;;;46.65;25.52;;;;;;;;;;4980820;28;20142;-77
2022/03/19 07:21:01;;;;;;;40.42;24.35;;;;;;;;;;4981385;28;20046;-78
2022/03/19 07:23:28;;;;;;;44.58;24.52;;;;;;;;;;4980793;28;20057;-78
2022/03/19 07:25:59;;;;;;;44.58;23.58;;;;;;;;;;4980768;28;20051;-79
2022/03/19 07:28:27;;;;;;;41.25;23.90;;;;;;;;;;4980632;28;20066;-79
2022/03/19 07:30:56;;;;;;;42.50;22.45;;;;;;;;;;4980581;28;20051;-79
2022/03/19 07:33:23;;;;;;;40.42;24.67;;;;;;;;;;4980604;28;20050;-78
2022/03/19 07:35:50;;;;;;;39.28;22.58;;;;;;;;;;4980175;28;20058;-79
2022/03/19 07:38:17;;;;;;;42.65;22.92;;;;;;;;;;4979780;28;20047;-77
2022/03/19 07:43:28;;;;;;;35.30;20.95;;;;;;;;;;4979680;28;20061;-78
2022/03/19 07:45:56;;;;;;;36.80;21.85;;;;;;;;;;4965897;28;20055;-79
2022/03/19 07:48:23;;;;;;;41.15;21.48;;;;;;;;;;4960648;29;20052;-78
2022/03/19 07:50:49;;;;;;;38.50;20.75;;;;;;;;;;4961705;29;20052;-78
2022/03/19 07:53:16;;;;;;;40.53;22.40;;;;;;;;;;4961521;29;20474;-78
2022/03/19 07:55:43;;;;;;;34.15;20.80;;;;;;;;;;4960092;29;20499;-78
2022/03/19 07:58:10;;;;;;;37.22;21.35;;;;;;;;;;4960792;29;20415;-79
2022/03/19 08:00:37;;;;;;;35.30;20.75;;;;;;;;;;4960102;29;20472;-78
2022/03/19 08:03:06;;;;;;;34.53;20.48;;;;;;;;;;4961744;29;20082;-79
2022/03/19 08:05:33;;;;;;;35.35;20.65;;;;;;;;;;4961066;29;20051;-79
2022/03/19 08:07:59;;;;;;;35.20;20.75;;;;;;;;;;4960586;29;20047;-79
2022/03/19 08:10:26;;;;;;;38.85;20.90;;;;;;;;;;4959272;29;20487;-79
2022/03/19 08:13:02;;;;;;;39.35;21.95;;;;;;;;;;4960249;29;20070;-80
2022/03/19 08:15:28;;;;;;;31.83;19.58;;;;;;;;;;4961329;29;20118;-79
2022/03/19 08:17:55;;;;;;;38.50;22.42;;;;;;;;;;4962288;29;20051;-79
2022/03/19 08:20:24;;;;;;;38.50;22.77;;;;;;;;;;4962650;29;20060;-79
2022/03/19 08:22:51;;;;;;;35.65;21.60;;;;;;;;;;4960944;29;20048;-80
2022/03/19 08:25:18;;;;;;;35.47;20.02;;;;;;;;;;4961065;29;20052;-80
2022/03/19 08:27:45;;;;;;;31.88;19.40;;;;;;;;;;4959478;28;20055;-79
2022/03/19 08:30:13;;;;;;;35.20;20.17;;;;;;;;;;4958899;29;20111;-79
2022/03/19 08:32:39;;;;;;;35.40;20.42;;;;;;;;;;4960844;29;20143;-80
2022/03/19 08:35:06;;;;;;;33.78;19.52;;;;;;;;;;4960025;29;20051;-80
2022/03/19 08:37:36;;;;;;;33.58;20.30;;;;;;;;;;4960426;29;20058;-80
2022/03/19 08:40:19;;;;;;;33.40;20.20;;;;;;;;;;4959348;29;20602;-78
2022/03/19 08:42:48;;;;;;;30.63;20.10;;;;;;;;;;4959784;29;20476;-79
2022/03/19 08:45:15;;;;;;;35.40;21.10;;;;;;;;;;4970518;28;20062;-79
2022/03/19 08:47:41;;;;;;;32.05;20.45;;;;;;;;;;4979324;28;20047;-79
2022/03/19 08:50:09;;;;;;;36.10;20.88;;;;;;;;;;4978719;28;20054;-79
2022/03/19 08:52:37;;;;;;;35.00;20.73;;;;;;;;;;4979630;28;20049;-79
2022/03/19 08:55:05;;;;;;;37.40;22.05;;;;;;;;;;4979114;28;20302;-79
2022/03/19 08:57:32;;;;;;;34.38;21.15;;;;;;;;;;4978645;28;20446;-79
2022/03/19 08:59:59;;;;;;;31.30;21.00;;;;;;;;;;4978964;28;20046;-78
2022/03/19 09:02:26;;;;;;;31.73;20.50;;;;;;;;;;4979416;28;20047;-80
2022/03/19 09:04:53;;;;;;;31.00;18.95;;;;;;;;;;4978720;28;20086;-80
2022/03/19 09:07:20;;;;;;;29.92;19.17;;;;;;;;;;4978566;28;20050;-79
2022/03/19 09:09:52;;;;;;;32.10;19.23;;;;;;;;;;4979190;28;20051;-81
2022/03/19 09:12:22;;;;;;;27.30;19.08;;;;;;;;;;4978673;28;20043;-79
2022/03/19 09:14:49;;;;;;;28.77;18.65;;;;;;;;;;4978559;28;20098;-79
2022/03/19 09:17:16;;;;;;;29.70;18.52;;;;;;;;;;4978615;28;20193;-80
2022/03/19 09:19:45;;;;;;;31.08;19.45;;;;;;;;;;4978001;28;20047;-79
2022/03/19 09:22:12;;;;;;;28.33;18.63;;;;;;;;;;4979923;28;20043;-78
2022/03/19 09:24:39;;;;;;;30.10;20.02;;;;;;;;;;4978587;28;20061;-78
2022/03/19 09:27:07;;;;;;;31.67;20.60;;;;;;;;;;4976454;28;20054;-78
2022/03/19 09:29:34;;;;;;;32.25;19.75;;;;;;;;;;4976489;28;20057;-78
2022/03/19 09:32:01;;;;;;;35.00;20.30;;;;;;;;;;4978930;28;20058;-79
2022/03/19 09:34:29;;;;;;;33.63;20.27;;;;;;;;;;4979542;28;20495;-79
2022/03/19 09:36:56;;;;;;;38.65;24.08;;;;;;;;;;4979921;28;20055;-79
2022/03/19 09:39:25;;;;;;;35.17;19.85;;;;;;;;;;4977945;28;20110;-79
2022/03/19 09:41:53;;;;;;;33.47;19.83;;;;;;;;;;4978160;28;20047;-78
2022/03/19 09:44:25;;;;;;;30.85;19.20;;;;;;;;;;4975019;28;20054;-79
2022/03/19 09:46:52;;;;;;;29.38;18.35;;;;;;;;;;4959543;29;20415;-79
2022/03/19 09:49:19;;;;;;;32.03;19.48;;;;;;;;;;4960376;29;20047;-77
2022/03/19 09:51:53;;;;;;;33.63;20.33;;;;;;;;;;4959921;29;20055;-78
2022/03/19 09:54:20;;;;;;;28.45;18.42;;;;;;;;;;4960689;29;20058;-79
2022/03/19 09:56:47;;;;;;;29.33;17.80;;;;;;;;;;4959765;29;20423;-79
2022/03/19 09:59:15;;;;;;;28.80;18.35;;;;;;;;;;4958811;29;20126;-78
2022/03/19 10:01:43;;;;;;;27.27;18.42;;;;;;;;;;4961574;29;20051;-78
2022/03/19 10:04:12;;;;;;;30.10;17.80;;;;;;;;;;4961840;29;20495;-78
2022/03/19 10:09:42;;;;;;;29.65;16.90;;;;;;;;;;4963460;29;20054;-78
2022/03/19 10:12:14;;;;;;;27.02;17.73;;;;;;;;;;4960308;29;20102;-77
2022/03/19 10:14:41;;;;;;;27.33;17.02;;;;;;;;;;4962107;29;20569;-78
2022/03/19 10:17:09;;;;;;;26.17;15.65;;;;;;;;;;4965229;29;20431;-80
2022/03/19 10:19:51;;;;;;;29.00;16.10;;;;;;;;;;4965154;29;20047;-79
2022/03/19 10:22:24;;;;;;;23.98;16.35;;;;;;;;;;4962818;29;20506;-79
2022/03/19 10:24:59;;;;;;;25.73;16.95;;;;;;;;;;4959702;29;20074;-80
2022/03/19 10:27:26;;;;;;;26.98;16.73;;;;;;;;;;4958828;29;20062;-79
2022/03/19 10:30:06;;;;;;;24.85;16.35;;;;;;;;;;4958609;29;20084;-79
2022/03/19 10:32:35;;;;;;;23.67;15.25;;;;;;;;;;4958825;29;20051;-79
2022/03/19 10:35:02;;;;;;;27.70;16.70;;;;;;;;;;4957401;29;20075;-79
2022/03/19 10:37:37;;;;;;;22.67;14.73;;;;;;;;;;4956512;29;20545;-79
2022/03/19 10:40:06;;;;;;;23.98;15.20;;;;;;;;;;4956770;29;20051;-78
2022/03/19 10:42:37;;;;;;;25.70;15.88;;;;;;;;;;4957215;29;20078;-79
2022/03/19 10:45:06;;;;;;;26.42;16.17;;;;;;;;;;4966586;28;20337;-78
2022/03/19 10:47:41;;;;;;;22.75;15.60;;;;;;;;;;4977249;28;20050;-79
2022/03/19 10:50:09;;;;;;;21.52;13.90;;;;;;;;;;4978227;28;20055;-78
2022/03/19 10:52:37;;;;;;;24.35;15.65;;;;;;;;;;4985482;28;20050;-79
2022/03/19 10:55:07;;;;;;;22.60;15.13;;;;;;;;;;4981101;28;20082;-79
2022/03/19 10:57:37;;;;;;;;;;;;;;;;;;4981890;28;20149;-80
2022/03/19 11:00:06;;;;;;;24.08;14.75;;;;;;;;;;4981810;28;19922;-79
2022/03/19 11:02:33;;;;;;;22.30;13.98;;;;;;;;;;4981630;28;20047;-80
2022/03/19 11:05:02;;;;;;;22.90;13.95;;;;;;;;;;4983203;28;20054;-79
2022/03/19 11:07:34;;;;;;;21.95;14.75;;;;;;;;;;4982796;28;20051;-79
2022/03/19 11:10:04;;;;;;;24.70;16.33;;;;;;;;;;4983587;28;20051;-79
2022/03/19 11:12:34;;;;;;;23.17;15.35;;;;;;;;;;4983878;28;20062;-79
2022/03/19 11:15:04;;;;;;;25.75;14.85;;;;;;;;;;4983412;28;20491;-80
2022/03/19 11:17:32;;;;;;;23.33;13.30;;;;;;;;;;4985606;28;20055;-79
2022/03/19 11:20:02;;;;;;;20.65;14.35;;;;;;;;;;4984998;28;20043;-78
2022/03/19 11:22:39;;;;;;;22.35;13.70;;;;;;;;;;4984587;28;20055;-79
2022/03/19 11:25:11;;;;;;;23.58;14.27;;;;;;;;;;4984043;28;20051;-79
2022/03/19 11:27:41;;;;;;;22.55;14.05;;;;;;;;;;4984244;28;20046;-79
2022/03/19 11:30:16;;;;;;;23.13;14.80;;;;;;;;;;4985188;28;20066;-79
2022/03/19 11:33:08;;;;;;;23.15;14.68;;;;;;;;;;4985758;28;20138;-79
2022/03/19 11:35:39;;;;;;;22.15;14.40;;;;;;;;;;4985752;28;20051;-78
2022/03/19 11:38:11;;;;;;;22.80;13.80;;;;;;;;;;4986811;28;20055;-78
2022/03/19 11:40:39;;;;;;;18.73;13.00;;;;;;;;;;4986655;28;20051;-81
2022/03/19 11:43:07;;;;;;;20.80;13.30;;;;;;;;;;4988539;28;20047;-78
2022/03/19 11:45:51;;;;;;;20.67;12.95;;;;;;;;;;4973923;28;20055;-78
2022/03/19 11:48:50;;;;;;;24.00;14.40;;;;;;;;;;4971798;29;20051;-77
2022/03/19 11:51:28;;;;;;;20.60;13.45;;;;;;;;;;4890159;29;20128;-77
2022/03/19 11:53:56;;;;;;;24.77;14.52;;;;;;;;;;4953838;29;20055;-77
2022/03/19 11:56:25;;;;;;;26.25;14.77;;;;;;;;;;4963347;29;20523;-77
2022/03/19 11:58:53;;;;;;;24.50;16.15;;;;;;;;;;4965742;29;20051;-78
2022/03/19 12:01:48;;;;;;;29.10;17.92;;;;;;;;;;4965533;29;20059;-78
2022/03/19 12:04:16;;;;;;;29.90;19.70;;;;;;;;;;4965035;29;20118;-79
2022/03/19 12:06:53;;;;;;;26.20;17.23;;;;;;;;;;4965225;29;20055;-77
2022/03/19 12:09:20;;;;;;;32.50;29.13;;;;;;;;;;4960451;29;20077;-78
2022/03/19 12:12:08;;;;;;;31.75;25.33;;;;;;;;;;4961365;29;20051;-77
2022/03/19 12:14:40;;;;;;;234.13;174.70;;;;;;;;;;4961837;29;20054;-79
2022/03/19 12:17:19;;;;;;;114.75;102.30;;;;;;;;;;4967033;28;20054;-82
2022/03/19 12:20:00;;;;;;;29.83;24.25;;;;;;;;;;4966406;29;20057;-79
2022/03/19 12:22:40;;;;;;;24.75;15.52;;;;;;;;;;4967802;29;20051;-79
2022/03/19 12:25:16;;;;;;;21.42;14.55;;;;;;;;;;4966319;28;20082;-80
2022/03/19 12:28:10;;;;;;;23.40;14.23;;;;;;;;;;4967395;28;20086;-82
2022/03/19 12:31:08;;;;;;;22.75;12.98;;;;;;;;;;4967433;28;20423;-79
2022/03/19 12:33:56;;;;;;;;;;;;;;;;;;;;;
2022/03/19 12:36:26;;;;;;;18.27;12.73;;;;;;;;;;4970970;28;20058;-78
2022/03/19 12:39:01;;;;;;;20.83;13.55;;;;;;;;;;4968879;28;20047;-77
2022/03/19 12:41:34;;;;;;;22.88;15.85;;;;;;;;;;4967338;28;20047;-80
2022/03/19 12:44:13;;;;;;;23.88;15.48;;;;;;;;;;4970523;28;20422;-80
2022/03/19 12:46:40;;;;;;;29.20;19.38;;;;;;;;;;4984470;28;20109;-80
2022/03/19 12:52:25;;;;;;;23.48;15.73;;;;;;;;;;4965263;28;20061;-79
2022/03/19 12:55:08;;;;;;;;;;;;;;;;;;;;;
2022/03/19 12:58:07;;;;;;;21.77;14.82;;;;;;;;;;4984404;28;20057;-84
2022/03/19 13:00:57;;;;;;;23.70;15.65;;;;;;;;;;4980867;28;20102;-80
2022/03/19 13:03:29;;;;;;;;;;;;;;;;;;4982159;28;20046;-79
2022/03/19 13:05:56;;;;;;;26.48;17.05;;;;;;;;;;4977902;28;19922;-79
2022/03/19 13:08:23;;;;;;;23.80;14.95;;;;;;;;;;4978162;28;20054;-78
2022/03/19 13:10:53;;;;;;;24.65;16.00;;;;;;;;;;4977589;28;20621;-79
2022/03/19 13:13:19;;;;;;;24.88;15.35;;;;;;;;;;4978232;28;20046;-80
2022/03/19 13:15:50;;;;;;;24.42;16.83;;;;;;;;;;4976687;28;20097;-79
2022/03/19 13:18:28;;;;;;;25.92;15.95;;;;;;;;;;4977294;28;20043;-80
2022/03/19 13:21:00;;;;;;;21.90;15.38;;;;;;;;;;4979862;28;20134;-78
2022/03/19 13:23:27;;;;;;;24.65;15.65;;;;;;;;;;4981316;28;20051;-78
2022/03/19 13:25:56;;;;;;;22.65;15.38;;;;;;;;;;4980431;28;20046;-78
2022/03/19 13:28:22;;;;;;;20.90;15.18;;;;;;;;;;4977614;28;20051;-79
2022/03/19 13:30:50;;;;;;;22.25;14.98;;;;;;;;;;4976856;28;20050;-78
2022/03/19 13:33:17;;;;;;;28.52;17.17;;;;;;;;;;4976076;28;20463;-78
2022/03/19 13:35:47;;;;;;;21.83;15.48;;;;;;;;;;4975643;28;20105;-78
2022/03/19 13:38:16;;;;;;;22.37;14.50;;;;;;;;;;4975746;28;20085;-78
2022/03/19 13:40:43;;;;;;;20.65;13.73;;;;;;;;;;4976523;28;20046;-78
2022/03/19 13:43:11;;;;;;;22.85;14.50;;;;;;;;;;4976314;28;20049;-78
2022/03/19 13:45:38;;;;;;;22.80;14.23;;;;;;;;;;4960759;28;20051;-78
2022/03/19 13:48:06;;;;;;;22.50;14.98;;;;;;;;;;4956258;29;20058;-79
2022/03/19 13:50:36;;;;;;;20.70;14.38;;;;;;;;;;4956363;29;20415;-79
2022/03/19 13:53:04;;;;;;;22.27;14.73;;;;;;;;;;4956582;29;20124;-79
2022/03/19 13:55:40;;;;;;;20.95;14.32;;;;;;;;;;4956705;29;20051;-78
2022/03/19 13:58:09;;;;;;;24.05;14.95;;;;;;;;;;4956502;29;20114;-78
2022/03/19 14:00:39;;;;;;;20.10;14.75;;;;;;;;;;4957334;29;20106;-79
2022/03/19 14:03:08;;;;;;;17.75;12.95;;;;;;;;;;4958575;28;20055;-80
2022/03/19 14:05:37;;;;;;;19.08;13.50;;;;;;;;;;4956843;29;20051;-79
2022/03/19 14:08:06;;;;;;;18.55;12.95;;;;;;;;;;4957794;29;20070;-80
2022/03/19 14:10:35;;;;;;;21.13;14.75;;;;;;;;;;4958671;29;20411;-80
2022/03/19 14:13:04;;;;;;;21.08;15.02;;;;;;;;;;4957796;29;20047;-79
2022/03/19 14:15:48;;;;;;;20.25;14.75;;;;;;;;;;4958202;29;20059;-80
2022/03/19 14:18:22;;;;;;;20.25;14.75;;;;;;;;;;4958527;29;20098;-80
2022/03/19 14:20:48;;;;;;;22.52;15.30;;;;;;;;;;4958561;29;20054;-79
2022/03/19 14:23:16;;;;;;;21.10;15.82;;;;;;;;;;4957713;29;20486;-80
2022/03/19 14:25:44;;;;;;;20.70;14.18;;;;;;;;;;4957298;28;20083;-79
2022/03/19 14:28:12;;;;;;;20.27;15.25;;;;;;;;;;4956464;29;20051;-78
2022/03/19 14:30:42;;;;;;;21.40;14.25;;;;;;;;;;4956547;29;20109;-79
2022/03/19 14:33:09;;;;;;;17.80;14.00;;;;;;;;;;4957493;29;20051;-79
2022/03/19 14:35:51;;;;;;;20.10;14.85;;;;;;;;;;4957023;29;20059;-79
2022/03/19 14:38:20;;;;;;;21.50;15.93;;;;;;;;;;4955961;29;20058;-79
2022/03/19 14:40:48;;;;;;;24.55;17.08;;;;;;;;;;4956431;29;20479;-79
2022/03/19 14:43:15;;;;;;;23.65;16.80;;;;;;;;;;4955672;29;20569;-79
2022/03/19 14:45:50;;;;;;;22.95;16.58;;;;;;;;;;4970580;28;20054;-79
2022/03/19 14:48:18;;;;;;;25.20;17.40;;;;;;;;;;4974946;28;20498;-79
2022/03/19 14:50:45;;;;;;;24.80;17.63;;;;;;;;;;4975727;28;20055;-80